sensor_id;sensor_type;location;lat;lon;timestamp;pressure;altitude;pressure_sealevel;temperature;humidity
80945;BME280;70400;50.934;11.590;2023-06-22T00:00:48;100325.97;;;21.92;67.89
80945;BME280;70400;50.934;11.590;2023-06-22T00:01:39;100316.50;;;21.76;68.37
80945;BME280;70400;50.934;11.590;2023-06-22T00:02:30;100316.28;;;21.64;68.95
80945;BME280;70400;50.934;11.590;2023-06-22T00:03:22;100310.94;;;21.64;69.08
80945;BME280;70400;50.934;11.590;2023-06-22T00:04:13;100317.75;;;21.66;68.42
80945;BME280;70400;50.934;11.590;2023-06-22T00:05:07;100309.09;;;21.58;69.15
80945;BME280;70400;50.934;11.590;2023-06-22T00:05:58;100318.34;;;21.62;68.92
80945;BME280;70400;50.934;11.590;2023-06-22T00:06:49;100322.47;;;21.64;68.79
80945;BME280;70400;50.934;11.590;2023-06-22T00:07:40;100322.50;;;21.58;69.10
80945;BME280;70400;50.934;11.590;2023-06-22T00:08:30;100318.34;;;21.62;68.56
80945;BME280;70400;50.934;11.590;2023-06-22T00:09:21;100323.31;;;21.65;68.58
80945;BME280;70400;50.934;11.590;2023-06-22T00:10:12;100319.19;;;21.56;68.93
80945;BME280;70400;50.934;11.590;2023-06-22T00:11:03;100327.03;;;21.57;69.32
80945;BME280;70400;50.934;11.590;2023-06-22T00:11:54;100321.47;;;21.59;68.84
80945;BME280;70400;50.934;11.590;2023-06-22T00:12:45;100325.38;;;21.63;68.73
80945;BME280;70400;50.934;11.590;2023-06-22T00:13:36;100327.84;;;21.51;68.91
80945;BME280;70400;50.934;11.590;2023-06-22T00:14:26;100329.50;;;21.52;68.97
80945;BME280;70400;50.934;11.590;2023-06-22T00:15:17;100326.81;;;21.39;69.76
80945;BME280;70400;50.934;11.590;2023-06-22T00:16:08;100328.88;;;21.57;69.38
80945;BME280;70400;50.934;11.590;2023-06-22T00:16:59;100333.63;;;21.35;69.92
80945;BME280;70400;50.934;11.590;2023-06-22T00:17:51;100325.09;;;21.05;71.11
80945;BME280;70400;50.934;11.590;2023-06-22T00:18:42;100329.97;;;20.81;72.09
80945;BME280;70400;50.934;11.590;2023-06-22T00:19:37;100334.44;;;20.60;72.86
80945;BME280;70400;50.934;11.590;2023-06-22T00:20:31;100333.88;;;20.30;73.92
80945;BME280;70400;50.934;11.590;2023-06-22T00:21:23;100331.16;;;20.24;74.33
80945;BME280;70400;50.934;11.590;2023-06-22T00:22:14;100329.41;;;20.09;74.94
80945;BME280;70400;50.934;11.590;2023-06-22T00:23:08;100338.97;;;20.19;74.73
80945;BME280;70400;50.934;11.590;2023-06-22T00:23:59;100334.72;;;20.31;73.85
80945;BME280;70400;50.934;11.590;2023-06-22T00:24:49;100332.91;;;20.38;73.71
80945;BME280;70400;50.934;11.590;2023-06-22T00:25:40;100330.75;;;20.27;74.37
80945;BME280;70400;50.934;11.590;2023-06-22T00:26:31;100334.94;;;20.36;74.01
80945;BME280;70400;50.934;11.590;2023-06-22T00:27:23;100337.38;;;20.31;74.19
80945;BME280;70400;50.934;11.590;2023-06-22T00:28:14;100334.38;;;20.47;73.39
80945;BME280;70400;50.934;11.590;2023-06-22T00:29:06;100336.25;;;20.53;73.14
80945;BME280;70400;50.934;11.590;2023-06-22T00:29:56;100333.44;;;20.62;72.58
80945;BME280;70400;50.934;11.590;2023-06-22T00:30:48;100333.41;;;20.55;72.62
80945;BME280;70400;50.934;11.590;2023-06-22T00:31:42;100332.50;;;20.48;73.19
80945;BME280;70400;50.934;11.590;2023-06-22T00:32:33;100334.53;;;20.39;73.39
80945;BME280;70400;50.934;11.590;2023-06-22T00:33:23;100329.66;;;20.14;74.65
80945;BME280;70400;50.934;11.590;2023-06-22T00:34:14;100337.22;;;20.04;74.85
80945;BME280;70400;50.934;11.590;2023-06-22T00:35:07;100334.75;;;20.03;75.13
80945;BME280;70400;50.934;11.590;2023-06-22T00:35:58;100329.09;;;19.91;75.67
80945;BME280;70400;50.934;11.590;2023-06-22T00:36:49;100326.72;;;20.03;74.74
80945;BME280;70400;50.934;11.590;2023-06-22T00:37:42;100329.34;;;19.96;75.39
80945;BME280;70400;50.934;11.590;2023-06-22T00:38:34;100329.97;;;19.98;75.32
80945;BME280;70400;50.934;11.590;2023-06-22T00:39:25;100325.63;;;19.97;75.35
80945;BME280;70400;50.934;11.590;2023-06-22T00:40:16;100324.34;;;19.86;75.88
80945;BME280;70400;50.934;11.590;2023-06-22T00:41:12;100326.28;;;19.99;75.33
80945;BME280;70400;50.934;11.590;2023-06-22T00:42:03;100329.63;;;20.08;74.77
80945;BME280;70400;50.934;11.590;2023-06-22T00:42:55;100326.75;;;20.09;74.78
80945;BME280;70400;50.934;11.590;2023-06-22T00:43:46;100330.63;;;20.00;75.46
80945;BME280;70400;50.934;11.590;2023-06-22T00:44:37;100330.16;;;19.97;75.27
80945;BME280;70400;50.934;11.590;2023-06-22T00:45:28;100336.44;;;20.10;74.62
80945;BME280;70400;50.934;11.590;2023-06-22T00:46:19;100330.34;;;20.23;73.88
80945;BME280;70400;50.934;11.590;2023-06-22T00:47:13;100331.81;;;20.32;73.78
80945;BME280;70400;50.934;11.590;2023-06-22T00:48:06;100336.81;;;20.42;72.81
80945;BME280;70400;50.934;11.590;2023-06-22T00:48:58;100336.03;;;20.48;72.64
80945;BME280;70400;50.934;11.590;2023-06-22T00:49:51;100337.09;;;20.54;72.57
80945;BME280;70400;50.934;11.590;2023-06-22T00:50:42;100332.81;;;20.59;72.34
80945;BME280;70400;50.934;11.590;2023-06-22T00:51:33;100330.34;;;20.65;72.46
80945;BME280;70400;50.934;11.590;2023-06-22T00:52:24;100328.47;;;20.65;72.21
80945;BME280;70400;50.934;11.590;2023-06-22T00:53:19;100321.50;;;20.71;72.17
80945;BME280;70400;50.934;11.590;2023-06-22T00:54:10;100322.34;;;20.78;71.17
80945;BME280;70400;50.934;11.590;2023-06-22T00:55:02;100320.69;;;20.77;71.54
80945;BME280;70400;50.934;11.590;2023-06-22T00:55:53;100312.84;;;20.75;71.69
80945;BME280;70400;50.934;11.590;2023-06-22T00:56:44;100313.88;;;20.81;71.44
80945;BME280;70400;50.934;11.590;2023-06-22T00:57:36;100311.63;;;20.78;71.25
80945;BME280;70400;50.934;11.590;2023-06-22T00:58:28;100307.31;;;20.84;71.44
80945;BME280;70400;50.934;11.590;2023-06-22T00:59:18;100308.75;;;20.86;71.25
80945;BME280;70400;50.934;11.590;2023-06-22T01:00:10;100299.28;;;20.90;71.32
80945;BME280;70400;50.934;11.590;2023-06-22T01:01:04;100297.66;;;20.89;69.79
80945;BME280;70400;50.934;11.590;2023-06-22T01:01:56;100288.16;;;20.87;70.92
80945;BME280;70400;50.934;11.590;2023-06-22T01:02:48;100286.50;;;20.92;70.88
80945;BME280;70400;50.934;11.590;2023-06-22T01:03:42;100290.63;;;20.95;70.78
80945;BME280;70400;50.934;11.590;2023-06-22T01:04:35;100292.09;;;20.97;70.96
80945;BME280;70400;50.934;11.590;2023-06-22T01:05:26;100287.31;;;20.93;70.89
80945;BME280;70400;50.934;11.590;2023-06-22T01:06:31;100288.59;;;20.97;70.93
80945;BME280;70400;50.934;11.590;2023-06-22T01:07:35;100285.69;;;21.05;70.42
80945;BME280;70400;50.934;11.590;2023-06-22T01:08:44;100286.91;;;20.96;70.49
80945;BME280;70400;50.934;11.590;2023-06-22T01:09:49;100282.97;;;20.72;71.63
80945;BME280;70400;50.934;11.590;2023-06-22T01:12:02;100286.06;;;20.82;71.11
80945;BME280;70400;50.934;11.590;2023-06-22T01:13:01;100291.44;;;20.82;70.58
80945;BME280;70400;50.934;11.590;2023-06-22T01:15:10;100299.88;;;20.86;71.10
80945;BME280;70400;50.934;11.590;2023-06-22T01:16:07;100302.97;;;20.83;71.09
80945;BME280;70400;50.934;11.590;2023-06-22T01:17:00;100298.25;;;20.91;70.69
80945;BME280;70400;50.934;11.590;2023-06-22T01:17:52;100299.09;;;20.92;70.90
80945;BME280;70400;50.934;11.590;2023-06-22T01:18:44;100303.59;;;20.85;71.05
80945;BME280;70400;50.934;11.590;2023-06-22T01:19:50;100305.41;;;20.71;71.60
80945;BME280;70400;50.934;11.590;2023-06-22T01:20:47;100309.94;;;20.64;71.71
80945;BME280;70400;50.934;11.590;2023-06-22T01:21:39;100308.38;;;20.48;72.17
80945;BME280;70400;50.934;11.590;2023-06-22T01:22:30;100305.94;;;20.46;72.65
80945;BME280;70400;50.934;11.590;2023-06-22T01:23:34;100311.91;;;20.48;72.51
80945;BME280;70400;50.934;11.590;2023-06-22T01:25:53;100303.72;;;20.63;71.97
80945;BME280;70400;50.934;11.590;2023-06-22T01:27:02;100305.41;;;20.71;71.38
80945;BME280;70400;50.934;11.590;2023-06-22T01:29:29;100309.97;;;20.77;70.77
80945;BME280;70400;50.934;11.590;2023-06-22T01:30:21;100312.41;;;20.65;71.26
80945;BME280;70400;50.934;11.590;2023-06-22T01:31:20;100308.72;;;20.66;71.23
80945;BME280;70400;50.934;11.590;2023-06-22T01:32:13;100310.09;;;20.55;71.62
80945;BME280;70400;50.934;11.590;2023-06-22T01:33:05;100314.81;;;20.53;71.47
80945;BME280;70400;50.934;11.590;2023-06-22T01:34:00;100312.09;;;20.47;71.48
80945;BME280;70400;50.934;11.590;2023-06-22T01:34:52;100314.38;;;20.50;71.59
80945;BME280;70400;50.934;11.590;2023-06-22T01:35:44;100316.88;;;20.51;71.35
80945;BME280;70400;50.934;11.590;2023-06-22T01:36:35;100313.97;;;20.53;71.77
80945;BME280;70400;50.934;11.590;2023-06-22T01:37:30;100310.47;;;20.52;71.59
80945;BME280;70400;50.934;11.590;2023-06-22T01:38:23;100310.28;;;20.54;71.46
80945;BME280;70400;50.934;11.590;2023-06-22T01:39:14;100305.78;;;20.54;71.21
80945;BME280;70400;50.934;11.590;2023-06-22T01:40:07;100305.38;;;20.57;70.93
80945;BME280;70400;50.934;11.590;2023-06-22T01:40:59;100309.25;;;20.48;71.54
80945;BME280;70400;50.934;11.590;2023-06-22T01:41:50;100311.91;;;20.48;70.67
80945;BME280;70400;50.934;11.590;2023-06-22T01:42:42;100312.53;;;20.50;71.22
80945;BME280;70400;50.934;11.590;2023-06-22T01:43:34;100312.53;;;20.50;71.40
80945;BME280;70400;50.934;11.590;2023-06-22T01:44:27;100319.19;;;20.54;71.13
80945;BME280;70400;50.934;11.590;2023-06-22T01:45:19;100318.91;;;20.49;71.40
80945;BME280;70400;50.934;11.590;2023-06-22T01:46:11;100320.97;;;20.47;71.47
80945;BME280;70400;50.934;11.590;2023-06-22T01:47:02;100320.31;;;20.38;71.92
80945;BME280;70400;50.934;11.590;2023-06-22T01:47:54;100330.59;;;20.35;72.06
80945;BME280;70400;50.934;11.590;2023-06-22T01:48:46;100321.31;;;20.37;71.92
80945;BME280;70400;50.934;11.590;2023-06-22T01:49:38;100314.75;;;20.40;71.79
80945;BME280;70400;50.934;11.590;2023-06-22T01:50:29;100319.28;;;20.39;71.70
80945;BME280;70400;50.934;11.590;2023-06-22T01:51:21;100316.78;;;20.31;72.21
80945;BME280;70400;50.934;11.590;2023-06-22T01:52:11;100315.69;;;20.19;72.47
80945;BME280;70400;50.934;11.590;2023-06-22T01:53:03;100309.09;;;20.15;72.55
80945;BME280;70400;50.934;11.590;2023-06-22T01:53:53;100302.75;;;20.23;72.26
80945;BME280;70400;50.934;11.590;2023-06-22T01:54:44;100308.38;;;20.41;72.22
80945;BME280;70400;50.934;11.590;2023-06-22T01:55:35;100301.34;;;20.33;72.25
80945;BME280;70400;50.934;11.590;2023-06-22T01:56:26;100300.59;;;20.11;74.13
80945;BME280;70400;50.934;11.590;2023-06-22T01:57:17;100297.38;;;19.88;75.00
80945;BME280;70400;50.934;11.590;2023-06-22T01:58:08;100300.06;;;19.66;75.84
80945;BME280;70400;50.934;11.590;2023-06-22T01:59:18;100296.38;;;19.39;77.01
80945;BME280;70400;50.934;11.590;2023-06-22T02:00:14;100297.16;;;19.12;78.19
80945;BME280;70400;50.934;11.590;2023-06-22T02:01:10;100292.56;;;19.05;78.66
80945;BME280;70400;50.934;11.590;2023-06-22T02:02:05;100297.22;;;18.97;79.11
80945;BME280;70400;50.934;11.590;2023-06-22T02:03:00;100290.34;;;18.87;79.24
80945;BME280;70400;50.934;11.590;2023-06-22T02:04:03;100288.59;;;18.80;80.16
80945;BME280;70400;50.934;11.590;2023-06-22T02:05:03;100286.03;;;18.72;80.17
80945;BME280;70400;50.934;11.590;2023-06-22T02:06:01;100291.47;;;18.78;79.93
80945;BME280;70400;50.934;11.590;2023-06-22T02:06:56;100296.06;;;18.70;80.06
80945;BME280;70400;50.934;11.590;2023-06-22T02:08:08;100296.72;;;18.72;80.14
80945;BME280;70400;50.934;11.590;2023-06-22T02:09:02;100306.97;;;18.68;80.33
80945;BME280;70400;50.934;11.590;2023-06-22T02:09:54;100296.75;;;18.57;80.54
80945;BME280;70400;50.934;11.590;2023-06-22T02:10:48;100298.88;;;18.47;81.20
80945;BME280;70400;50.934;11.590;2023-06-22T02:11:44;100294.13;;;18.42;81.24
80945;BME280;70400;50.934;11.590;2023-06-22T02:12:35;100295.69;;;18.36;81.86
80945;BME280;70400;50.934;11.590;2023-06-22T02:13:27;100298.06;;;18.31;81.99
80945;BME280;70400;50.934;11.590;2023-06-22T02:14:18;100290.63;;;18.27;82.09
80945;BME280;70400;50.934;11.590;2023-06-22T02:15:10;100285.88;;;18.22;82.36
80945;BME280;70400;50.934;11.590;2023-06-22T02:16:03;100287.59;;;18.30;82.12
80945;BME280;70400;50.934;11.590;2023-06-22T02:16:56;100285.22;;;18.20;82.45
80945;BME280;70400;50.934;11.590;2023-06-22T02:17:49;100283.91;;;18.16;82.95
80945;BME280;70400;50.934;11.590;2023-06-22T02:18:47;100282.44;;;18.13;82.86
80945;BME280;70400;50.934;11.590;2023-06-22T02:19:41;100289.53;;;18.21;82.70
80945;BME280;70400;50.934;11.590;2023-06-22T02:20:32;100295.22;;;18.33;82.46
80945;BME280;70400;50.934;11.590;2023-06-22T02:21:23;100289.13;;;18.39;81.92
80945;BME280;70400;50.934;11.590;2023-06-22T02:22:14;100286.47;;;18.39;82.08
80945;BME280;70400;50.934;11.590;2023-06-22T02:23:07;100299.38;;;18.35;82.59
80945;BME280;70400;50.934;11.590;2023-06-22T02:23:58;100294.03;;;18.35;82.10
80945;BME280;70400;50.934;11.590;2023-06-22T02:24:49;100295.34;;;18.39;82.14
80945;BME280;70400;50.934;11.590;2023-06-22T02:25:43;100292.00;;;18.37;82.70
80945;BME280;70400;50.934;11.590;2023-06-22T02:26:35;100296.47;;;18.52;81.71
80945;BME280;70400;50.934;11.590;2023-06-22T02:27:27;100298.41;;;18.58;81.54
80945;BME280;70400;50.934;11.590;2023-06-22T02:28:17;100291.41;;;18.57;81.30
80945;BME280;70400;50.934;11.590;2023-06-22T02:29:08;100295.19;;;18.62;80.72
80945;BME280;70400;50.934;11.590;2023-06-22T02:29:59;100293.94;;;18.80;80.23
80945;BME280;70400;50.934;11.590;2023-06-22T02:30:50;100298.03;;;18.76;80.90
80945;BME280;70400;50.934;11.590;2023-06-22T02:31:42;100293.34;;;18.78;80.44
80945;BME280;70400;50.934;11.590;2023-06-22T02:32:33;100294.03;;;18.72;80.67
80945;BME280;70400;50.934;11.590;2023-06-22T02:33:24;100283.56;;;18.70;80.83
80945;BME280;70400;50.934;11.590;2023-06-22T02:34:15;100285.84;;;18.73;80.72
80945;BME280;70400;50.934;11.590;2023-06-22T02:35:09;100288.44;;;18.81;80.18
80945;BME280;70400;50.934;11.590;2023-06-22T02:36:00;100281.06;;;18.83;79.91
80945;BME280;70400;50.934;11.590;2023-06-22T02:36:58;100288.59;;;18.80;80.38
80945;BME280;70400;50.934;11.590;2023-06-22T02:37:49;100292.38;;;18.85;79.80
80945;BME280;70400;50.934;11.590;2023-06-22T02:38:42;100294.28;;;18.92;79.51
80945;BME280;70400;50.934;11.590;2023-06-22T02:39:38;100290.75;;;19.06;79.08
80945;BME280;70400;50.934;11.590;2023-06-22T02:40:31;100295.50;;;19.11;78.60
80945;BME280;70400;50.934;11.590;2023-06-22T02:41:22;100282.59;;;19.14;78.44
80945;BME280;70400;50.934;11.590;2023-06-22T02:42:13;100282.44;;;19.22;77.85
80945;BME280;70400;50.934;11.590;2023-06-22T02:43:06;100285.13;;;19.22;77.93
80945;BME280;70400;50.934;11.590;2023-06-22T02:43:57;100287.78;;;19.22;77.99
80945;BME280;70400;50.934;11.590;2023-06-22T02:44:48;100289.06;;;19.26;77.73
80945;BME280;70400;50.934;11.590;2023-06-22T02:45:39;100291.59;;;19.35;77.52
80945;BME280;70400;50.934;11.590;2023-06-22T02:46:30;100292.38;;;19.28;77.56
80945;BME280;70400;50.934;11.590;2023-06-22T02:47:22;100288.88;;;19.28;77.29
80945;BME280;70400;50.934;11.590;2023-06-22T02:48:13;100291.84;;;19.40;76.58
80945;BME280;70400;50.934;11.590;2023-06-22T02:49:05;100292.03;;;19.38;76.41
80945;BME280;70400;50.934;11.590;2023-06-22T02:49:56;100291.28;;;19.44;76.08
80945;BME280;70400;50.934;11.590;2023-06-22T02:50:50;100294.13;;;19.43;76.26
80945;BME280;70400;50.934;11.590;2023-06-22T02:51:44;100296.25;;;19.47;75.57
80945;BME280;70400;50.934;11.590;2023-06-22T02:52:37;100292.34;;;19.50;75.66
80945;BME280;70400;50.934;11.590;2023-06-22T02:53:32;100301.44;;;19.56;74.88
80945;BME280;70400;50.934;11.590;2023-06-22T02:54:23;100297.75;;;19.57;74.27
80945;BME280;70400;50.934;11.590;2023-06-22T02:55:16;100294.44;;;19.55;74.73
80945;BME280;70400;50.934;11.590;2023-06-22T02:56:15;100288.63;;;19.51;75.27
80945;BME280;70400;50.934;11.590;2023-06-22T02:57:06;100287.72;;;19.65;73.98
80945;BME280;70400;50.934;11.590;2023-06-22T02:57:57;100284.91;;;19.67;74.29
80945;BME280;70400;50.934;11.590;2023-06-22T02:58:53;100287.06;;;19.57;74.55
80945;BME280;70400;50.934;11.590;2023-06-22T02:59:44;100283.78;;;19.61;74.30
80945;BME280;70400;50.934;11.590;2023-06-22T03:00:36;100291.81;;;19.61;74.31
80945;BME280;70400;50.934;11.590;2023-06-22T03:01:27;100291.91;;;19.68;74.34
80945;BME280;70400;50.934;11.590;2023-06-22T03:02:18;100295.13;;;19.63;74.09
80945;BME280;70400;50.934;11.590;2023-06-22T03:03:12;100298.13;;;19.53;74.12
80945;BME280;70400;50.934;11.590;2023-06-22T03:04:03;100302.88;;;19.51;74.48
80945;BME280;70400;50.934;11.590;2023-06-22T03:04:55;100305.34;;;19.53;74.84
80945;BME280;70400;50.934;11.590;2023-06-22T03:05:46;100310.94;;;19.58;73.57
80945;BME280;70400;50.934;11.590;2023-06-22T03:06:37;100311.38;;;19.62;74.08
80945;BME280;70400;50.934;11.590;2023-06-22T03:07:31;100315.53;;;19.64;74.13
80945;BME280;70400;50.934;11.590;2023-06-22T03:08:23;100320.22;;;19.62;74.25
80945;BME280;70400;50.934;11.590;2023-06-22T03:09:14;100318.56;;;19.61;74.54
80945;BME280;70400;50.934;11.590;2023-06-22T03:10:05;100323.47;;;19.58;74.68
80945;BME280;70400;50.934;11.590;2023-06-22T03:10:56;100329.50;;;19.66;74.43
80945;BME280;70400;50.934;11.590;2023-06-22T03:11:47;100328.53;;;19.67;74.72
80945;BME280;70400;50.934;11.590;2023-06-22T03:12:39;100336.94;;;19.64;74.36
80945;BME280;70400;50.934;11.590;2023-06-22T03:13:30;100335.75;;;19.67;74.26
80945;BME280;70400;50.934;11.590;2023-06-22T03:14:21;100332.97;;;19.60;74.58
80945;BME280;70400;50.934;11.590;2023-06-22T03:15:12;100336.56;;;19.67;73.98
80945;BME280;70400;50.934;11.590;2023-06-22T03:16:03;100341.09;;;19.67;74.15
80945;BME280;70400;50.934;11.590;2023-06-22T03:16:54;100340.19;;;19.60;73.66
80945;BME280;70400;50.934;11.590;2023-06-22T03:17:45;100343.66;;;19.60;74.31
80945;BME280;70400;50.934;11.590;2023-06-22T03:18:37;100352.53;;;19.61;74.19
80945;BME280;70400;50.934;11.590;2023-06-22T03:19:27;100345.31;;;19.61;73.64
80945;BME280;70400;50.934;11.590;2023-06-22T03:20:20;100354.47;;;19.67;73.68
80945;BME280;70400;50.934;11.590;2023-06-22T03:21:11;100361.00;;;19.64;73.43
80945;BME280;70400;50.934;11.590;2023-06-22T03:22:02;100357.69;;;19.62;73.51
80945;BME280;70400;50.934;11.590;2023-06-22T03:22:53;100363.69;;;19.64;73.75
80945;BME280;70400;50.934;11.590;2023-06-22T03:23:45;100372.59;;;19.71;73.03
80945;BME280;70400;50.934;11.590;2023-06-22T03:24:36;100368.72;;;19.74;72.73
80945;BME280;70400;50.934;11.590;2023-06-22T03:25:29;100379.09;;;19.62;73.06
80945;BME280;70400;50.934;11.590;2023-06-22T03:26:20;100370.03;;;19.63;73.31
80945;BME280;70400;50.934;11.590;2023-06-22T03:27:11;100383.41;;;19.63;73.09
80945;BME280;70400;50.934;11.590;2023-06-22T03:28:04;100384.22;;;19.64;73.31
80945;BME280;70400;50.934;11.590;2023-06-22T03:28:54;100386.22;;;19.55;73.42
80945;BME280;70400;50.934;11.590;2023-06-22T03:29:45;100388.72;;;19.57;72.93
80945;BME280;70400;50.934;11.590;2023-06-22T03:30:38;100389.34;;;19.59;73.07
80945;BME280;70400;50.934;11.590;2023-06-22T03:31:35;100395.72;;;19.58;72.59
80945;BME280;70400;50.934;11.590;2023-06-22T03:32:28;100396.09;;;19.55;73.37
80945;BME280;70400;50.934;11.590;2023-06-22T03:33:19;100404.69;;;19.50;73.50
80945;BME280;70400;50.934;11.590;2023-06-22T03:34:09;100407.38;;;19.50;73.60
80945;BME280;70400;50.934;11.590;2023-06-22T03:35:00;100407.19;;;19.51;73.53
80945;BME280;70400;50.934;11.590;2023-06-22T03:35:52;100415.78;;;19.47;73.42
80945;BME280;70400;50.934;11.590;2023-06-22T03:36:44;100416.34;;;19.42;73.70
80945;BME280;70400;50.934;11.590;2023-06-22T03:37:36;100418.84;;;19.44;73.64
80945;BME280;70400;50.934;11.590;2023-06-22T03:38:27;100426.75;;;19.52;73.25
80945;BME280;70400;50.934;11.590;2023-06-22T03:39:19;100432.84;;;19.46;73.77
80945;BME280;70400;50.934;11.590;2023-06-22T03:40:11;100433.50;;;19.48;73.35
80945;BME280;70400;50.934;11.590;2023-06-22T03:41:03;100436.63;;;19.51;73.36
80945;BME280;70400;50.934;11.590;2023-06-22T03:41:54;100443.88;;;19.58;72.89
80945;BME280;70400;50.934;11.590;2023-06-22T03:42:46;100437.88;;;19.56;73.19
80945;BME280;70400;50.934;11.590;2023-06-22T03:43:37;100438.13;;;19.61;73.09
80945;BME280;70400;50.934;11.590;2023-06-22T03:44:29;100453.13;;;19.55;73.48
80945;BME280;70400;50.934;11.590;2023-06-22T03:45:19;100451.72;;;19.59;74.10
80945;BME280;70400;50.934;11.590;2023-06-22T03:46:10;100451.56;;;19.46;74.42
80945;BME280;70400;50.934;11.590;2023-06-22T03:47:03;100451.69;;;19.38;75.28
80945;BME280;70400;50.934;11.590;2023-06-22T03:47:54;100450.78;;;19.30;75.69
80945;BME280;70400;50.934;11.590;2023-06-22T03:48:45;100449.13;;;19.29;75.87
80945;BME280;70400;50.934;11.590;2023-06-22T03:49:36;100452.38;;;19.25;76.06
80945;BME280;70400;50.934;11.590;2023-06-22T03:50:27;100448.41;;;19.21;76.26
80945;BME280;70400;50.934;11.590;2023-06-22T03:51:18;100444.34;;;19.25;76.05
80945;BME280;70400;50.934;11.590;2023-06-22T03:52:09;100445.44;;;19.30;75.61
80945;BME280;70400;50.934;11.590;2023-06-22T03:53:01;100443.28;;;19.41;75.37
80945;BME280;70400;50.934;11.590;2023-06-22T03:53:52;100440.72;;;19.33;75.87
80945;BME280;70400;50.934;11.590;2023-06-22T03:54:43;100441.50;;;19.26;76.06
80945;BME280;70400;50.934;11.590;2023-06-22T03:55:34;100446.84;;;19.26;75.87
80945;BME280;70400;50.934;11.590;2023-06-22T03:56:25;100442.50;;;19.25;76.31
80945;BME280;70400;50.934;11.590;2023-06-22T03:57:16;100447.84;;;19.25;76.51
80945;BME280;70400;50.934;11.590;2023-06-22T03:58:07;100444.56;;;19.23;76.45
80945;BME280;70400;50.934;11.590;2023-06-22T03:59:00;100441.56;;;19.33;75.78
80945;BME280;70400;50.934;11.590;2023-06-22T03:59:50;100447.00;;;19.40;74.75
80945;BME280;70400;50.934;11.590;2023-06-22T04:00:41;100440.13;;;19.52;74.96
80945;BME280;70400;50.934;11.590;2023-06-22T04:01:32;100442.22;;;19.57;74.40
80945;BME280;70400;50.934;11.590;2023-06-22T04:02:23;100442.53;;;19.47;74.85
80945;BME280;70400;50.934;11.590;2023-06-22T04:03:15;100440.44;;;19.42;75.37
80945;BME280;70400;50.934;11.590;2023-06-22T04:04:06;100436.72;;;19.43;75.36
80945;BME280;70400;50.934;11.590;2023-06-22T04:04:58;100434.91;;;19.44;75.30
80945;BME280;70400;50.934;11.590;2023-06-22T04:05:51;100439.66;;;19.48;75.73
80945;BME280;70400;50.934;11.590;2023-06-22T04:06:42;100436.25;;;19.55;75.22
80945;BME280;70400;50.934;11.590;2023-06-22T04:07:33;100439.31;;;19.51;75.66
80945;BME280;70400;50.934;11.590;2023-06-22T04:08:24;100440.78;;;19.54;75.16
80945;BME280;70400;50.934;11.590;2023-06-22T04:09:15;100441.38;;;19.56;75.26
80945;BME280;70400;50.934;11.590;2023-06-22T04:10:06;100432.91;;;19.67;74.83
80945;BME280;70400;50.934;11.590;2023-06-22T04:10:58;100429.53;;;19.65;75.28
80945;BME280;70400;50.934;11.590;2023-06-22T04:11:49;100422.34;;;19.66;75.00
80945;BME280;70400;50.934;11.590;2023-06-22T04:12:39;100419.56;;;19.74;75.17
80945;BME280;70400;50.934;11.590;2023-06-22T04:13:30;100422.72;;;19.84;74.59
80945;BME280;70400;50.934;11.590;2023-06-22T04:14:21;100423.13;;;19.81;75.00
80945;BME280;70400;50.934;11.590;2023-06-22T04:15:12;100420.66;;;19.80;75.04
80945;BME280;70400;50.934;11.590;2023-06-22T04:16:02;100425.38;;;19.78;75.29
80945;BME280;70400;50.934;11.590;2023-06-22T04:16:53;100418.22;;;19.85;75.13
80945;BME280;70400;50.934;11.590;2023-06-22T04:17:44;100416.38;;;19.85;75.24
80945;BME280;70400;50.934;11.590;2023-06-22T04:18:35;100410.88;;;19.93;74.62
80945;BME280;70400;50.934;11.590;2023-06-22T04:19:26;100408.44;;;19.99;74.37
80945;BME280;70400;50.934;11.590;2023-06-22T04:20:17;100390.53;;;19.99;74.58
80945;BME280;70400;50.934;11.590;2023-06-22T04:21:08;100387.22;;;19.97;74.36
80945;BME280;70400;50.934;11.590;2023-06-22T04:21:58;100381.72;;;20.05;74.16
80945;BME280;70400;50.934;11.590;2023-06-22T04:22:49;100381.34;;;20.08;74.25
80945;BME280;70400;50.934;11.590;2023-06-22T04:23:40;100371.25;;;20.10;73.85
80945;BME280;70400;50.934;11.590;2023-06-22T04:24:31;100365.22;;;20.02;74.06
80945;BME280;70400;50.934;11.590;2023-06-22T04:25:22;100353.34;;;20.11;73.77
80945;BME280;70400;50.934;11.590;2023-06-22T04:26:13;100350.94;;;20.23;73.53
80945;BME280;70400;50.934;11.590;2023-06-22T04:27:05;100355.72;;;20.34;72.59
80945;BME280;70400;50.934;11.590;2023-06-22T04:27:56;100351.19;;;20.28;73.08
80945;BME280;70400;50.934;11.590;2023-06-22T04:28:47;100358.06;;;20.44;72.49
80945;BME280;70400;50.934;11.590;2023-06-22T04:29:42;100346.53;;;20.50;72.30
80945;BME280;70400;50.934;11.590;2023-06-22T04:30:39;100343.34;;;20.61;71.85
80945;BME280;70400;50.934;11.590;2023-06-22T04:31:37;100346.25;;;20.73;71.60
80945;BME280;70400;50.934;11.590;2023-06-22T04:32:29;100338.19;;;20.73;71.55
80945;BME280;70400;50.934;11.590;2023-06-22T04:33:19;100326.91;;;20.84;70.27
80945;BME280;70400;50.934;11.590;2023-06-22T04:34:10;100324.25;;;20.97;69.88
80945;BME280;70400;50.934;11.590;2023-06-22T04:35:02;100315.44;;;21.17;69.63
80945;BME280;70400;50.934;11.590;2023-06-22T04:35:55;100305.34;;;21.59;67.99
80945;BME280;70400;50.934;11.590;2023-06-22T04:36:47;100308.22;;;21.84;67.43